Terminal Aerodrome Forecast
Issued by NWS

Home | Current Version | Previous Version | Text Only | Print | Product List | Glossary On
Versions: 1 2 3 4 5 6 7 8 9 10 11 12 13 14 15 16 17 18 19
000
FTUS44 KLZK 011700
TAFLLQ
TAF
KLLQ 011739Z 0118/0218 24007KT P6SM VCTS BKN040CB
     FM012000 20012KT P6SM SCT050
     FM020100 17005KT P6SM SCT250
     FM020800 18005KT P6SM BKN020
     FM021200 20006KT 5SM BR SCT007 OVC012
     FM021500 22007KT P6SM BKN020 OVC040=

USA.gov is the U.S. government's official web portal to all federal, state and local government web resources and services.